sensor_id;sensor_type;location;lat;lon;timestamp;pressure;altitude;pressure_sealevel;temperature;humidity
79752;BME280;69234;47.446;21.636;2023-05-02T00:00:19;100729.38;;;10.82;66.48
79752;BME280;69234;47.446;21.636;2023-05-02T00:00:49;100731.44;;;10.79;67.24
79752;BME280;69234;47.446;21.636;2023-05-02T00:01:20;100731.22;;;10.82;66.80
79752;BME280;69234;47.446;21.636;2023-05-02T00:01:51;100739.28;;;10.82;67.22
79752;BME280;69234;47.446;21.636;2023-05-02T00:02:22;100735.84;;;10.80;67.25
79752;BME280;69234;47.446;21.636;2023-05-02T00:02:54;100736.09;;;10.77;67.57
79752;BME280;69234;47.446;21.636;2023-05-02T00:03:24;100730.00;;;10.75;68.26
79752;BME280;69234;47.446;21.636;2023-05-02T00:03:55;100726.47;;;10.74;67.35
79752;BME280;69234;47.446;21.636;2023-05-02T00:04:26;100741.00;;;10.71;68.11
79752;BME280;69234;47.446;21.636;2023-05-02T00:04:57;100736.59;;;10.70;68.35
79752;BME280;69234;47.446;21.636;2023-05-02T00:05:27;100736.84;;;10.67;68.38
79752;BME280;69234;47.446;21.636;2023-05-02T00:06:01;100741.22;;;10.68;68.48
79752;BME280;69234;47.446;21.636;2023-05-02T00:06:32;100734.03;;;10.69;67.84
79752;BME280;69234;47.446;21.636;2023-05-02T00:07:03;100735.25;;;10.65;68.08
79752;BME280;69234;47.446;21.636;2023-05-02T00:07:35;100737.09;;;10.64;68.09
79752;BME280;69234;47.446;21.636;2023-05-02T00:08:05;100734.63;;;10.61;68.90
79752;BME280;69234;47.446;21.636;2023-05-02T00:08:36;100736.22;;;10.64;68.32
79752;BME280;69234;47.446;21.636;2023-05-02T00:09:07;100731.81;;;10.63;68.66
79752;BME280;69234;47.446;21.636;2023-05-02T00:09:38;100738.19;;;10.62;67.98
79752;BME280;69234;47.446;21.636;2023-05-02T00:10:09;100739.88;;;10.63;68.57
79752;BME280;69234;47.446;21.636;2023-05-02T00:10:40;100738.91;;;10.64;67.87
79752;BME280;69234;47.446;21.636;2023-05-02T00:11:10;100738.06;;;10.63;68.22
79752;BME280;69234;47.446;21.636;2023-05-02T00:11:41;100737.78;;;10.66;68.59
79752;BME280;69234;47.446;21.636;2023-05-02T00:12:12;100738.19;;;10.62;68.68
79752;BME280;69234;47.446;21.636;2023-05-02T00:12:43;100741.00;;;10.60;68.59
79752;BME280;69234;47.446;21.636;2023-05-02T00:13:13;100741.84;;;10.61;68.78
79752;BME280;69234;47.446;21.636;2023-05-02T00:13:44;100733.03;;;10.59;68.34
79752;BME280;69234;47.446;21.636;2023-05-02T00:14:15;100735.88;;;10.57;68.23
79752;BME280;69234;47.446;21.636;2023-05-02T00:14:46;100738.41;;;10.59;68.53
79752;BME280;69234;47.446;21.636;2023-05-02T00:15:16;100745.50;;;10.60;68.59
79752;BME280;69234;47.446;21.636;2023-05-02T00:15:47;100736.81;;;10.56;68.06
79752;BME280;69234;47.446;21.636;2023-05-02T00:16:18;100734.13;;;10.56;68.80
79752;BME280;69234;47.446;21.636;2023-05-02T00:16:49;100739.63;;;10.55;68.81
79752;BME280;69234;47.446;21.636;2023-05-02T00:17:19;100736.09;;;10.54;68.61
79752;BME280;69234;47.446;21.636;2023-05-02T00:17:50;100739.50;;;10.56;68.57
79752;BME280;69234;47.446;21.636;2023-05-02T00:18:21;100736.81;;;10.56;68.18
79752;BME280;69234;47.446;21.636;2023-05-02T00:18:53;100748.53;;;10.55;68.34
79752;BME280;69234;47.446;21.636;2023-05-02T00:19:24;100736.94;;;10.55;68.86
79752;BME280;69234;47.446;21.636;2023-05-02T00:19:54;100739.63;;;10.55;68.89
79752;BME280;69234;47.446;21.636;2023-05-02T00:20:26;100741.47;;;10.54;69.22
79752;BME280;69234;47.446;21.636;2023-05-02T00:20:56;100741.59;;;10.53;68.79
79752;BME280;69234;47.446;21.636;2023-05-02T00:21:27;100745.16;;;10.53;68.92
79752;BME280;69234;47.446;21.636;2023-05-02T00:22:02;100741.59;;;10.53;68.66
79752;BME280;69234;47.446;21.636;2023-05-02T00:22:33;100745.38;;;10.50;69.22
79752;BME280;69234;47.446;21.636;2023-05-02T00:23:03;100746.84;;;10.54;69.04
79752;BME280;69234;47.446;21.636;2023-05-02T00:23:34;100745.16;;;10.53;69.28
79752;BME280;69234;47.446;21.636;2023-05-02T00:24:05;100741.59;;;10.53;68.63
79752;BME280;69234;47.446;21.636;2023-05-02T00:24:36;100746.25;;;10.51;69.07
79752;BME280;69234;47.446;21.636;2023-05-02T00:25:07;100746.84;;;10.54;69.43
79752;BME280;69234;47.446;21.636;2023-05-02T00:25:46;100749.63;;;10.53;69.01
79752;BME280;69234;47.446;21.636;2023-05-02T00:26:16;100746.94;;;10.53;69.21
79752;BME280;69234;47.446;21.636;2023-05-02T00:26:47;100746.94;;;10.53;68.98
79752;BME280;69234;47.446;21.636;2023-05-02T00:27:18;100738.28;;;10.49;69.18
79752;BME280;69234;47.446;21.636;2023-05-02T00:27:48;100750.53;;;10.53;69.19
79752;BME280;69234;47.446;21.636;2023-05-02T00:28:20;100749.63;;;10.53;68.59
79752;BME280;69234;47.446;21.636;2023-05-02T00:28:51;100753.91;;;10.55;68.51
79752;BME280;69234;47.446;21.636;2023-05-02T00:29:22;100745.00;;;10.55;68.42
79752;BME280;69234;47.446;21.636;2023-05-02T00:29:53;100750.53;;;10.53;68.80
79752;BME280;69234;47.446;21.636;2023-05-02T00:30:23;100747.69;;;10.55;68.28
79752;BME280;69234;47.446;21.636;2023-05-02T00:30:54;100753.91;;;10.55;68.53
79752;BME280;69234;47.446;21.636;2023-05-02T00:31:25;100748.53;;;10.55;68.38
79752;BME280;69234;47.446;21.636;2023-05-02T00:31:56;100745.16;;;10.53;69.11
79752;BME280;69234;47.446;21.636;2023-05-02T00:32:27;100749.63;;;10.53;68.96
79752;BME280;69234;47.446;21.636;2023-05-02T00:32:58;100747.69;;;10.55;69.01
79752;BME280;69234;47.446;21.636;2023-05-02T00:33:29;100753.06;;;10.55;69.09
79752;BME280;69234;47.446;21.636;2023-05-02T00:33:59;100746.09;;;10.52;69.65
79752;BME280;69234;47.446;21.636;2023-05-02T00:34:30;100747.09;;;10.51;68.96
79752;BME280;69234;47.446;21.636;2023-05-02T00:35:01;100739.88;;;10.52;68.92
79752;BME280;69234;47.446;21.636;2023-05-02T00:35:32;100750.53;;;10.53;69.78
79752;BME280;69234;47.446;21.636;2023-05-02T00:36:03;100745.25;;;10.52;69.55
79752;BME280;69234;47.446;21.636;2023-05-02T00:36:34;100742.56;;;10.52;68.72
79752;BME280;69234;47.446;21.636;2023-05-02T00:37:05;100746.00;;;10.54;69.53
79752;BME280;69234;47.446;21.636;2023-05-02T00:37:35;100750.53;;;10.53;69.21
79752;BME280;69234;47.446;21.636;2023-05-02T00:38:06;100758.19;;;10.58;69.33
79752;BME280;69234;47.446;21.636;2023-05-02T00:38:37;100752.94;;;10.56;70.06
79752;BME280;69234;47.446;21.636;2023-05-02T00:39:08;100743.31;;;10.54;69.34
79752;BME280;69234;47.446;21.636;2023-05-02T00:39:39;100748.91;;;10.62;69.50
79752;BME280;69234;47.446;21.636;2023-05-02T00:40:11;100753.91;;;10.66;68.33
79752;BME280;69234;47.446;21.636;2023-05-02T00:40:47;100753.81;;;10.68;69.11
79752;BME280;69234;47.446;21.636;2023-05-02T00:41:18;100750.03;;;10.70;68.67
79752;BME280;69234;47.446;21.636;2023-05-02T00:41:55;100759.91;;;10.70;68.54
79752;BME280;69234;47.446;21.636;2023-05-02T00:42:26;100753.91;;;10.66;68.72
79752;BME280;69234;47.446;21.636;2023-05-02T00:43:00;100756.34;;;10.69;69.00
79752;BME280;69234;47.446;21.636;2023-05-02T00:43:31;100755.50;;;10.69;68.92
79752;BME280;69234;47.446;21.636;2023-05-02T00:44:02;100750.03;;;10.70;68.22
79752;BME280;69234;47.446;21.636;2023-05-02T00:44:33;100761.38;;;10.74;68.81
79752;BME280;69234;47.446;21.636;2023-05-02T00:45:04;100757.72;;;10.75;68.49
79752;BME280;69234;47.446;21.636;2023-05-02T00:45:37;100758.81;;;10.73;68.94
79752;BME280;69234;47.446;21.636;2023-05-02T00:46:10;100755.41;;;10.70;68.74
79752;BME280;69234;47.446;21.636;2023-05-02T00:46:42;100761.25;;;10.76;69.27
79752;BME280;69234;47.446;21.636;2023-05-02T00:47:14;100756.88;;;10.75;69.70
79752;BME280;69234;47.446;21.636;2023-05-02T00:47:45;100753.81;;;10.79;69.39
79752;BME280;69234;47.446;21.636;2023-05-02T00:48:16;100760.78;;;10.82;69.38
79752;BME280;69234;47.446;21.636;2023-05-02T00:48:49;100757.22;;;10.81;68.94
79752;BME280;69234;47.446;21.636;2023-05-02T00:49:20;100757.09;;;10.83;69.15
79752;BME280;69234;47.446;21.636;2023-05-02T00:49:51;100760.78;;;10.82;69.13
79752;BME280;69234;47.446;21.636;2023-05-02T00:50:26;100755.41;;;10.82;68.46
79752;BME280;69234;47.446;21.636;2023-05-02T00:50:57;100758.09;;;10.82;69.06
79752;BME280;69234;47.446;21.636;2023-05-02T00:51:29;100757.00;;;10.84;69.00
79752;BME280;69234;47.446;21.636;2023-05-02T00:51:59;100763.94;;;10.87;68.69
79752;BME280;69234;47.446;21.636;2023-05-02T00:52:32;100753.31;;;10.85;69.25
79752;BME280;69234;47.446;21.636;2023-05-02T00:53:03;100758.09;;;10.82;69.27
79752;BME280;69234;47.446;21.636;2023-05-02T00:53:35;100756.38;;;10.81;68.68
79752;BME280;69234;47.446;21.636;2023-05-02T00:54:06;100761.63;;;10.82;68.51
79752;BME280;69234;47.446;21.636;2023-05-02T00:54:37;100755.16;;;10.85;68.57
79752;BME280;69234;47.446;21.636;2023-05-02T00:55:09;100750.63;;;10.85;67.95
79752;BME280;69234;47.446;21.636;2023-05-02T00:55:39;100761.47;;;10.84;67.86
79752;BME280;69234;47.446;21.636;2023-05-02T00:56:11;100766.63;;;10.87;67.88
79752;BME280;69234;47.446;21.636;2023-05-02T00:56:41;100765.75;;;10.86;68.91
79752;BME280;69234;47.446;21.636;2023-05-02T00:57:12;100764.16;;;10.84;69.08
79752;BME280;69234;47.446;21.636;2023-05-02T00:57:43;100778.50;;;10.84;68.83
79752;BME280;69234;47.446;21.636;2023-05-02T00:58:16;100770.44;;;10.84;68.16
79752;BME280;69234;47.446;21.636;2023-05-02T00:58:48;100769.53;;;10.84;68.59
79752;BME280;69234;47.446;21.636;2023-05-02T00:59:19;100766.16;;;10.82;69.00
79752;BME280;69234;47.446;21.636;2023-05-02T00:59:50;100775.66;;;10.86;68.39
79752;BME280;69234;47.446;21.636;2023-05-02T01:00:29;100771.28;;;10.85;68.62
79752;BME280;69234;47.446;21.636;2023-05-02T01:01:52;100767.59;;;10.86;69.75
79752;BME280;69234;47.446;21.636;2023-05-02T01:03:02;100776.66;;;10.85;69.22
79752;BME280;69234;47.446;21.636;2023-05-02T01:05:01;100771.53;;;10.82;69.20
79752;BME280;69234;47.446;21.636;2023-05-02T01:07:05;100777.75;;;10.82;68.65
79752;BME280;69234;47.446;21.636;2023-05-02T01:08:02;100775.19;;;10.81;68.27
79752;BME280;69234;47.446;21.636;2023-05-02T01:09:51;100775.53;;;10.76;69.34
79752;BME280;69234;47.446;21.636;2023-05-02T01:11:56;100771.75;;;10.79;69.43
79752;BME280;69234;47.446;21.636;2023-05-02T01:12:44;100778.84;;;10.80;69.85
79752;BME280;69234;47.446;21.636;2023-05-02T01:13:21;100782.50;;;10.79;69.74
79752;BME280;69234;47.446;21.636;2023-05-02T01:13:55;100780.56;;;10.81;69.46
79752;BME280;69234;47.446;21.636;2023-05-02T01:14:32;100780.66;;;10.79;69.85
79752;BME280;69234;47.446;21.636;2023-05-02T01:15:08;100785.31;;;10.77;69.66
79752;BME280;69234;47.446;21.636;2023-05-02T01:15:41;100785.31;;;10.77;69.77
79752;BME280;69234;47.446;21.636;2023-05-02T01:16:15;100777.13;;;10.79;69.99
79752;BME280;69234;47.446;21.636;2023-05-02T01:16:49;100782.50;;;10.79;70.01
79752;BME280;69234;47.446;21.636;2023-05-02T01:17:27;100786.78;;;10.81;69.64
79752;BME280;69234;47.446;21.636;2023-05-02T01:18:01;100778.72;;;10.81;69.40
79752;BME280;69234;47.446;21.636;2023-05-02T01:18:37;100777.97;;;10.79;69.72
79752;BME280;69234;47.446;21.636;2023-05-02T01:19:24;100780.66;;;10.79;69.54
79752;BME280;69234;47.446;21.636;2023-05-02T01:20:06;100781.53;;;10.80;68.97
79752;BME280;69234;47.446;21.636;2023-05-02T01:20:41;100779.06;;;10.77;69.27
79752;BME280;69234;47.446;21.636;2023-05-02T01:21:13;100771.25;;;10.74;70.39
79752;BME280;69234;47.446;21.636;2023-05-02T01:21:45;100784.44;;;10.77;69.89
79752;BME280;69234;47.446;21.636;2023-05-02T01:22:19;100784.44;;;10.77;69.75
79752;BME280;69234;47.446;21.636;2023-05-02T01:22:58;100777.13;;;10.79;69.86
79752;BME280;69234;47.446;21.636;2023-05-02T01:24:42;100785.31;;;10.77;69.41
79752;BME280;69234;47.446;21.636;2023-05-02T01:25:22;100781.91;;;10.75;69.39
79752;BME280;69234;47.446;21.636;2023-05-02T01:26:15;100776.63;;;10.74;69.70
79752;BME280;69234;47.446;21.636;2023-05-02T01:27:06;100784.69;;;10.74;69.91
79752;BME280;69234;47.446;21.636;2023-05-02T01:29:02;100779.59;;;10.70;69.39
79752;BME280;69234;47.446;21.636;2023-05-02T01:29:36;100781.28;;;10.71;69.41
79752;BME280;69234;47.446;21.636;2023-05-02T01:30:11;100777.84;;;10.69;70.07
79752;BME280;69234;47.446;21.636;2023-05-02T01:30:46;100778.84;;;10.68;70.30
79752;BME280;69234;47.446;21.636;2023-05-02T01:31:21;100782.38;;;10.69;70.14
79752;BME280;69234;47.446;21.636;2023-05-02T01:31:54;100783.22;;;10.69;70.09
79752;BME280;69234;47.446;21.636;2023-05-02T01:32:28;100776.91;;;10.70;70.09
79752;BME280;69234;47.446;21.636;2023-05-02T01:33:04;100776.03;;;10.70;69.84
79752;BME280;69234;47.446;21.636;2023-05-02T01:33:36;100777.00;;;10.69;70.37
79752;BME280;69234;47.446;21.636;2023-05-02T01:34:09;100776.16;;;10.68;69.80
79752;BME280;69234;47.446;21.636;2023-05-02T01:34:42;100775.41;;;10.66;70.16
79752;BME280;69234;47.446;21.636;2023-05-02T01:35:16;100777.00;;;10.69;70.63
79752;BME280;69234;47.446;21.636;2023-05-02T01:35:50;100778.84;;;10.68;70.02
79752;BME280;69234;47.446;21.636;2023-05-02T01:36:24;100774.44;;;10.67;70.59
79752;BME280;69234;47.446;21.636;2023-05-02T01:36:58;100772.00;;;10.64;70.58
79752;BME280;69234;47.446;21.636;2023-05-02T01:37:32;100773.00;;;10.63;71.42
79752;BME280;69234;47.446;21.636;2023-05-02T01:38:05;100781.06;;;10.63;71.14
79752;BME280;69234;47.446;21.636;2023-05-02T01:38:38;100769.78;;;10.58;70.89
79752;BME280;69234;47.446;21.636;2023-05-02T01:39:17;100775.91;;;10.60;70.48
79752;BME280;69234;47.446;21.636;2023-05-02T01:39:50;100782.13;;;10.61;70.85
79752;BME280;69234;47.446;21.636;2023-05-02T01:40:22;100780.53;;;10.58;70.52
79752;BME280;69234;47.446;21.636;2023-05-02T01:40:57;100777.84;;;10.58;71.01
79752;BME280;69234;47.446;21.636;2023-05-02T01:41:33;100775.16;;;10.58;70.37
79752;BME280;69234;47.446;21.636;2023-05-02T01:42:05;100781.63;;;10.56;70.59
79752;BME280;69234;47.446;21.636;2023-05-02T01:42:37;100774.56;;;10.55;70.60
79752;BME280;69234;47.446;21.636;2023-05-02T01:43:11;100774.69;;;10.53;70.64
79752;BME280;69234;47.446;21.636;2023-05-02T01:43:43;100781.03;;;10.52;70.92
79752;BME280;69234;47.446;21.636;2023-05-02T01:44:17;100774.94;;;10.50;70.67
79752;BME280;69234;47.446;21.636;2023-05-02T01:44:49;100773.09;;;10.51;71.23
79752;BME280;69234;47.446;21.636;2023-05-02T01:45:22;100783.00;;;10.50;71.18
79752;BME280;69234;47.446;21.636;2023-05-02T01:45:56;100779.44;;;10.50;71.26
79752;BME280;69234;47.446;21.636;2023-05-02T01:46:33;100779.44;;;10.50;70.45
79752;BME280;69234;47.446;21.636;2023-05-02T01:47:08;100778.69;;;10.47;71.17
79752;BME280;69234;47.446;21.636;2023-05-02T01:47:41;100780.53;;;10.47;70.94
79752;BME280;69234;47.446;21.636;2023-05-02T01:48:15;100773.69;;;10.43;71.39
79752;BME280;69234;47.446;21.636;2023-05-02T01:48:47;100778.94;;;10.44;71.37
79752;BME280;69234;47.446;21.636;2023-05-02T01:49:23;100783.69;;;10.41;70.89
79752;BME280;69234;47.446;21.636;2023-05-02T01:49:55;100783.94;;;10.38;71.34
79752;BME280;69234;47.446;21.636;2023-05-02T01:50:28;100769.78;;;10.36;71.30
79752;BME280;69234;47.446;21.636;2023-05-02T01:51:02;100769.03;;;10.34;71.42
79752;BME280;69234;47.446;21.636;2023-05-02T01:51:39;100785.63;;;10.39;71.22
79752;BME280;69234;47.446;21.636;2023-05-02T01:52:14;100779.31;;;10.40;71.01
79752;BME280;69234;47.446;21.636;2023-05-02T01:52:48;100778.78;;;10.35;71.57
79752;BME280;69234;47.446;21.636;2023-05-02T01:53:24;100780.63;;;10.34;71.40
79752;BME280;69234;47.446;21.636;2023-05-02T01:53:55;100780.78;;;10.33;71.80
79752;BME280;69234;47.446;21.636;2023-05-02T01:54:29;100780.78;;;10.33;71.67
79752;BME280;69234;47.446;21.636;2023-05-02T01:55:01;100780.78;;;10.33;71.32
79752;BME280;69234;47.446;21.636;2023-05-02T01:55:35;100774.03;;;10.27;71.45
79752;BME280;69234;47.446;21.636;2023-05-02T01:56:07;100786.38;;;10.30;71.54
79752;BME280;69234;47.446;21.636;2023-05-02T01:56:39;100779.53;;;10.26;71.38
79752;BME280;69234;47.446;21.636;2023-05-02T01:57:11;100783.91;;;10.27;71.50
79752;BME280;69234;47.446;21.636;2023-05-02T01:57:46;100787.66;;;10.24;72.18
79752;BME280;69234;47.446;21.636;2023-05-02T01:58:19;100787.88;;;10.21;72.22
79752;BME280;69234;47.446;21.636;2023-05-02T01:58:52;100786.06;;;10.21;72.41
79752;BME280;69234;47.446;21.636;2023-05-02T01:59:27;100782.41;;;10.22;72.78
79752;BME280;69234;47.446;21.636;2023-05-02T02:00:00;100784.34;;;10.20;72.55
79752;BME280;69234;47.446;21.636;2023-05-02T02:00:44;100781.91;;;10.17;72.55
79752;BME280;69234;47.446;21.636;2023-05-02T02:01:17;100780.19;;;10.16;72.50
79752;BME280;69234;47.446;21.636;2023-05-02T02:01:50;100788.13;;;10.18;72.48
79752;BME280;69234;47.446;21.636;2023-05-02T02:02:25;100781.91;;;10.17;72.43
79752;BME280;69234;47.446;21.636;2023-05-02T02:03:00;100782.03;;;10.16;72.59
79752;BME280;69234;47.446;21.636;2023-05-02T02:03:31;100791.91;;;10.15;73.05
79752;BME280;69234;47.446;21.636;2023-05-02T02:04:03;100783.25;;;10.12;73.37
79752;BME280;69234;47.446;21.636;2023-05-02T02:04:37;100788.84;;;10.09;73.61
79752;BME280;69234;47.446;21.636;2023-05-02T02:05:11;100790.56;;;10.10;73.09
79752;BME280;69234;47.446;21.636;2023-05-02T02:05:46;100786.16;;;10.09;72.91
79752;BME280;69234;47.446;21.636;2023-05-02T02:06:19;100784.34;;;10.09;73.23
79752;BME280;69234;47.446;21.636;2023-05-02T02:07:02;100783.59;;;10.07;73.41
79752;BME280;69234;47.446;21.636;2023-05-02T02:07:36;100788.47;;;10.02;74.17
79752;BME280;69234;47.446;21.636;2023-05-02T02:08:07;100794.06;;;9.99;74.15
79752;BME280;69234;47.446;21.636;2023-05-02T02:08:38;100793.81;;;10.02;74.54
79752;BME280;69234;47.446;21.636;2023-05-02T02:09:09;100783.56;;;9.96;73.94
79752;BME280;69234;47.446;21.636;2023-05-02T02:09:40;100792.22;;;9.99;74.60
79752;BME280;69234;47.446;21.636;2023-05-02T02:10:12;100793.06;;;10.00;73.34
79752;BME280;69234;47.446;21.636;2023-05-02T02:10:47;100781.63;;;9.98;73.52
79752;BME280;69234;47.446;21.636;2023-05-02T02:11:35;100794.06;;;9.99;73.65
79752;BME280;69234;47.446;21.636;2023-05-02T02:12:27;100790.53;;;9.98;74.09
79752;BME280;69234;47.446;21.636;2023-05-02T02:13:11;100788.69;;;9.99;73.63
79752;BME280;69234;47.446;21.636;2023-05-02T02:13:48;100794.06;;;9.99;74.16
79752;BME280;69234;47.446;21.636;2023-05-02T02:14:26;100790.63;;;9.97;74.48
79752;BME280;69234;47.446;21.636;2023-05-02T02:15:20;100792.47;;;9.96;74.67
79752;BME280;69234;47.446;21.636;2023-05-02T02:16:00;100791.59;;;9.96;74.16
79752;BME280;69234;47.446;21.636;2023-05-02T02:16:34;100787.22;;;9.95;74.77
79752;BME280;69234;47.446;21.636;2023-05-02T02:17:21;100789.38;;;9.90;74.30
79752;BME280;69234;47.446;21.636;2023-05-02T02:18:07;100789.38;;;9.90;74.32
79752;BME280;69234;47.446;21.636;2023-05-02T02:18:41;100790.22;;;9.90;73.96
79752;BME280;69234;47.446;21.636;2023-05-02T02:19:14;100798.81;;;9.95;73.92
79752;BME280;69234;47.446;21.636;2023-05-02T02:19:45;100795.28;;;9.95;74.32
79752;BME280;69234;47.446;21.636;2023-05-02T02:20:17;100797.09;;;9.94;74.82
79752;BME280;69234;47.446;21.636;2023-05-02T02:20:50;100789.38;;;9.90;75.30
79752;BME280;69234;47.446;21.636;2023-05-02T02:21:23;100797.94;;;9.95;74.90
79752;BME280;69234;47.446;21.636;2023-05-02T02:21:57;100797.19;;;9.93;74.80
79752;BME280;69234;47.446;21.636;2023-05-02T02:22:34;100788.16;;;9.94;74.93
79752;BME280;69234;47.446;21.636;2023-05-02T02:23:07;100796.75;;;9.99;74.38
79752;BME280;69234;47.446;21.636;2023-05-02T02:23:41;100796.75;;;9.99;74.63
79752;BME280;69234;47.446;21.636;2023-05-02T02:24:16;100799.44;;;9.99;74.69
79752;BME280;69234;47.446;21.636;2023-05-02T02:24:49;100801.88;;;10.02;75.03
79752;BME280;69234;47.446;21.636;2023-05-02T02:25:22;100802.59;;;10.04;74.98
79752;BME280;69234;47.446;21.636;2023-05-02T02:25:56;100793.81;;;10.02;75.01
79752;BME280;69234;47.446;21.636;2023-05-02T02:26:27;100797.00;;;10.07;74.93
79752;BME280;69234;47.446;21.636;2023-05-02T02:26:58;100798.97;;;10.05;74.52
79752;BME280;69234;47.446;21.636;2023-05-02T02:27:29;100799.44;;;10.10;74.99
79752;BME280;69234;47.446;21.636;2023-05-02T02:28:00;100798.47;;;10.11;75.32
79752;BME280;69234;47.446;21.636;2023-05-02T02:28:33;100805.56;;;10.12;74.54
79752;BME280;69234;47.446;21.636;2023-05-02T02:29:04;100804.59;;;10.13;74.72
79752;BME280;69234;47.446;21.636;2023-05-02T02:29:34;100805.56;;;10.12;75.13
79752;BME280;69234;47.446;21.636;2023-05-02T02:30:09;100796.16;;;10.07;74.84
79752;BME280;69234;47.446;21.636;2023-05-02T02:30:41;100808.13;;;10.14;75.00
79752;BME280;69234;47.446;21.636;2023-05-02T02:31:12;100800.81;;;10.16;75.08
79752;BME280;69234;47.446;21.636;2023-05-02T02:31:43;100803.38;;;10.17;74.56
79752;BME280;69234;47.446;21.636;2023-05-02T02:32:14;100797.91;;;10.19;74.40
79752;BME280;69234;47.446;21.636;2023-05-02T02:32:45;100796.78;;;10.21;75.25
79752;BME280;69234;47.446;21.636;2023-05-02T02:33:15;100802.91;;;10.23;75.30
79752;BME280;69234;47.446;21.636;2023-05-02T02:33:47;100795.84;;;10.22;75.46
79752;BME280;69234;47.446;21.636;2023-05-02T02:34:19;100797.53;;;10.23;74.84
79752;BME280;69234;47.446;21.636;2023-05-02T02:34:50;100792.19;;;10.23;74.98
79752;BME280;69234;47.446;21.636;2023-05-02T02:35:22;100798.31;;;10.26;75.12
79752;BME280;69234;47.446;21.636;2023-05-02T02:36:06;100799.19;;;10.26;75.45
79752;BME280;69234;47.446;21.636;2023-05-02T02:36:52;100803.44;;;10.29;75.52
79752;BME280;69234;47.446;21.636;2023-05-02T02:37:53;100804.09;;;10.32;74.93
79752;BME280;69234;47.446;21.636;2023-05-02T02:38:42;100793.34;;;10.32;75.14
79752;BME280;69234;47.446;21.636;2023-05-02T02:40:56;100800.91;;;10.38;75.35
79752;BME280;69234;47.446;21.636;2023-05-02T02:41:38;100800.78;;;10.40;74.95
79752;BME280;69234;47.446;21.636;2023-05-02T02:42:36;100802.72;;;10.38;75.00
79752;BME280;69234;47.446;21.636;2023-05-02T02:44:42;100806.16;;;10.40;75.20
79752;BME280;69234;47.446;21.636;2023-05-02T02:45:37;100802.88;;;10.36;75.83
79752;BME280;69234;47.446;21.636;2023-05-02T02:46:47;100802.72;;;10.38;76.03
79752;BME280;69234;47.446;21.636;2023-05-02T02:47:28;100800.19;;;10.36;75.86
79752;BME280;69234;47.446;21.636;2023-05-02T02:48:29;100790.53;;;10.34;75.89
79752;BME280;69234;47.446;21.636;2023-05-02T02:49:23;100803.47;;;10.40;75.51
79752;BME280;69234;47.446;21.636;2023-05-02T02:51:53;100811.53;;;10.40;76.57
79752;BME280;69234;47.446;21.636;2023-05-02T02:52:53;100804.44;;;10.39;76.79
79752;BME280;69234;47.446;21.636;2023-05-02T02:53:33;100804.34;;;10.40;76.33
79752;BME280;69234;47.446;21.636;2023-05-02T02:55:45;100806.16;;;10.40;76.83
79752;BME280;69234;47.446;21.636;2023-05-02T02:56:35;100803.47;;;10.40;76.73
79752;BME280;69234;47.446;21.636;2023-05-02T02:58:13;100801.41;;;10.43;77.00
79752;BME280;69234;47.446;21.636;2023-05-02T02:59:03;100807.88;;;10.41;76.87
79752;BME280;69234;47.446;21.636;2023-05-02T02:59:41;100806.66;;;10.45;76.65
79752;BME280;69234;47.446;21.636;2023-05-02T03:00:21;100812.78;;;10.47;76.80
79752;BME280;69234;47.446;21.636;2023-05-02T03:00:54;100807.25;;;10.48;76.41
79752;BME280;69234;47.446;21.636;2023-05-02T03:01:31;100805.31;;;10.51;76.50
79752;BME280;69234;47.446;21.636;2023-05-02T03:02:08;100808.50;;;10.56;76.44
79752;BME280;69234;47.446;21.636;2023-05-02T03:02:41;100811.31;;;10.54;76.26
79752;BME280;69234;47.446;21.636;2023-05-02T03:03:14;100817.53;;;10.55;77.05
79752;BME280;69234;47.446;21.636;2023-05-02T03:03:47;100810.47;;;10.54;76.63
79752;BME280;69234;47.446;21.636;2023-05-02T03:04:21;100813.75;;;10.57;76.74
79752;BME280;69234;47.446;21.636;2023-05-02T03:04:54;100811.94;;;10.58;76.07
79752;BME280;69234;47.446;21.636;2023-05-02T03:05:26;100807.63;;;10.55;76.59
79752;BME280;69234;47.446;21.636;2023-05-02T03:05:58;100813.75;;;10.57;76.92
79752;BME280;69234;47.446;21.636;2023-05-02T03:06:48;100813.38;;;10.62;76.34
79752;BME280;69234;47.446;21.636;2023-05-02T03:07:19;100803.50;;;10.62;76.14
79752;BME280;69234;47.446;21.636;2023-05-02T03:07:50;100810.84;;;10.60;76.38
79752;BME280;69234;47.446;21.636;2023-05-02T03:08:21;100807.03;;;10.63;75.61
79752;BME280;69234;47.446;21.636;2023-05-02T03:08:52;100817.44;;;10.67;75.86
79752;BME280;69234;47.446;21.636;2023-05-02T03:09:27;100808.53;;;10.67;76.23
79752;BME280;69234;47.446;21.636;2023-05-02T03:10:09;100809.47;;;10.66;76.51
79752;BME280;69234;47.446;21.636;2023-05-02T03:10:42;100813.03;;;10.66;76.20
79752;BME280;69234;47.446;21.636;2023-05-02T03:11:13;100805.94;;;10.65;76.10
79752;BME280;69234;47.446;21.636;2023-05-02T03:11:45;100808.53;;;10.67;76.31
79752;BME280;69234;47.446;21.636;2023-05-02T03:12:17;100814.00;;;10.65;76.21
79752;BME280;69234;47.446;21.636;2023-05-02T03:12:48;100806.78;;;10.66;76.17
79752;BME280;69234;47.446;21.636;2023-05-02T03:13:19;100810.94;;;10.70;75.89
79752;BME280;69234;47.446;21.636;2023-05-02T03:13:50;100806.47;;;10.70;76.01
79752;BME280;69234;47.446;21.636;2023-05-02T03:14:24;100813.28;;;10.75;75.40
79752;BME280;69234;47.446;21.636;2023-05-02T03:15:56;100808.88;;;10.74;75.26